sensor_id;sensor_type;location;lat;lon;timestamp;P1;durP1;ratioP1;P2;durP2;ratioP2
45905;SDS011;31619;49.008;12.106;2023-01-15T00:01:00;4.50;;;3.67;;
45905;SDS011;31619;49.008;12.106;2023-01-15T00:03:26;4.85;;;4.18;;
45905;SDS011;31619;49.008;12.106;2023-01-15T00:05:52;6.80;;;4.55;;
45905;SDS011;31619;49.008;12.106;2023-01-15T00:08:18;6.13;;;4.50;;
45905;SDS011;31619;49.008;12.106;2023-01-15T00:10:44;4.32;;;3.60;;
45905;SDS011;31619;49.008;12.106;2023-01-15T00:13:09;4.60;;;3.85;;
45905;SDS011;31619;49.008;12.106;2023-01-15T00:15:35;4.20;;;3.80;;
45905;SDS011;31619;49.008;12.106;2023-01-15T00:18:01;4.28;;;3.85;;
45905;SDS011;31619;49.008;12.106;2023-01-15T00:20:27;5.60;;;4.63;;
45905;SDS011;31619;49.008;12.106;2023-01-15T00:22:53;5.65;;;4.28;;
45905;SDS011;31619;49.008;12.106;2023-01-15T00:25:18;3.47;;;3.20;;
45905;SDS011;31619;49.008;12.106;2023-01-15T00:28:23;4.85;;;3.88;;
45905;SDS011;31619;49.008;12.106;2023-01-15T00:30:48;4.15;;;3.75;;
45905;SDS011;31619;49.008;12.106;2023-01-15T00:33:14;3.63;;;3.33;;
45905;SDS011;31619;49.008;12.106;2023-01-15T00:35:39;7.93;;;4.38;;
45905;SDS011;31619;49.008;12.106;2023-01-15T00:38:05;6.50;;;4.15;;
45905;SDS011;31619;49.008;12.106;2023-01-15T00:40:30;4.20;;;3.80;;
45905;SDS011;31619;49.008;12.106;2023-01-15T00:42:56;5.13;;;4.20;;
45905;SDS011;31619;49.008;12.106;2023-01-15T00:45:21;7.07;;;4.38;;
45905;SDS011;31619;49.008;12.106;2023-01-15T00:47:47;5.78;;;4.10;;
45905;SDS011;31619;49.008;12.106;2023-01-15T00:50:15;6.38;;;3.75;;
45905;SDS011;31619;49.008;12.106;2023-01-15T00:52:40;4.45;;;3.50;;
45905;SDS011;31619;49.008;12.106;2023-01-15T00:55:06;3.83;;;3.42;;
45905;SDS011;31619;49.008;12.106;2023-01-15T00:57:33;5.15;;;3.65;;
45905;SDS011;31619;49.008;12.106;2023-01-15T00:59:59;6.10;;;3.85;;
45905;SDS011;31619;49.008;12.106;2023-01-15T01:02:24;5.13;;;3.58;;
45905;SDS011;31619;49.008;12.106;2023-01-15T01:04:50;3.90;;;3.38;;
45905;SDS011;31619;49.008;12.106;2023-01-15T01:07:15;5.00;;;3.30;;
45905;SDS011;31619;49.008;12.106;2023-01-15T01:09:42;4.82;;;3.63;;
45905;SDS011;31619;49.008;12.106;2023-01-15T01:12:08;3.50;;;3.20;;
45905;SDS011;31619;49.008;12.106;2023-01-15T01:14:33;6.32;;;2.70;;
45905;SDS011;31619;49.008;12.106;2023-01-15T01:17:00;5.22;;;3.05;;
45905;SDS011;31619;49.008;12.106;2023-01-15T01:19:25;3.53;;;2.70;;
45905;SDS011;31619;49.008;12.106;2023-01-15T01:21:51;3.58;;;2.92;;
45905;SDS011;31619;49.008;12.106;2023-01-15T01:24:21;3.20;;;2.80;;
45905;SDS011;31619;49.008;12.106;2023-01-15T01:26:48;3.22;;;2.55;;
45905;SDS011;31619;49.008;12.106;2023-01-15T01:29:16;2.92;;;2.72;;
45905;SDS011;31619;49.008;12.106;2023-01-15T01:31:43;4.47;;;2.55;;
45905;SDS011;31619;49.008;12.106;2023-01-15T01:34:10;5.20;;;2.65;;
45905;SDS011;31619;49.008;12.106;2023-01-15T01:36:37;3.72;;;2.70;;
45905;SDS011;31619;49.008;12.106;2023-01-15T01:39:04;2.50;;;2.40;;
45905;SDS011;31619;49.008;12.106;2023-01-15T01:41:30;2.33;;;2.20;;
45905;SDS011;31619;49.008;12.106;2023-01-15T01:43:58;2.80;;;2.60;;
45905;SDS011;31619;49.008;12.106;2023-01-15T01:46:31;2.67;;;2.47;;
45905;SDS011;31619;49.008;12.106;2023-01-15T01:48:59;2.95;;;2.67;;
45905;SDS011;31619;49.008;12.106;2023-01-15T01:51:29;3.15;;;2.65;;
45905;SDS011;31619;49.008;12.106;2023-01-15T01:53:59;2.70;;;2.50;;
45905;SDS011;31619;49.008;12.106;2023-01-15T01:56:26;3.08;;;2.78;;
45905;SDS011;31619;49.008;12.106;2023-01-15T01:58:52;2.95;;;2.50;;
45905;SDS011;31619;49.008;12.106;2023-01-15T02:01:19;2.63;;;2.42;;
45905;SDS011;31619;49.008;12.106;2023-01-15T02:03:48;3.45;;;2.78;;
45905;SDS011;31619;49.008;12.106;2023-01-15T02:06:14;2.55;;;2.35;;
45905;SDS011;31619;49.008;12.106;2023-01-15T02:08:40;3.10;;;2.90;;
45905;SDS011;31619;49.008;12.106;2023-01-15T02:11:07;2.90;;;2.70;;
45905;SDS011;31619;49.008;12.106;2023-01-15T02:13:42;3.63;;;2.72;;
45905;SDS011;31619;49.008;12.106;2023-01-15T02:16:35;3.10;;;2.90;;
45905;SDS011;31619;49.008;12.106;2023-01-15T02:23:01;4.68;;;2.83;;
45905;SDS011;31619;49.008;12.106;2023-01-15T02:27:24;2.70;;;2.60;;
45905;SDS011;31619;49.008;12.106;2023-01-15T02:29:53;2.95;;;2.67;;
45905;SDS011;31619;49.008;12.106;2023-01-15T02:32:55;2.72;;;2.50;;
45905;SDS011;31619;49.008;12.106;2023-01-15T02:35:29;2.95;;;2.75;;
45905;SDS011;31619;49.008;12.106;2023-01-15T02:38:06;2.97;;;2.22;;
45905;SDS011;31619;49.008;12.106;2023-01-15T02:40:35;2.85;;;2.55;;
45905;SDS011;31619;49.008;12.106;2023-01-15T02:43:03;3.75;;;2.85;;
45905;SDS011;31619;49.008;12.106;2023-01-15T02:45:31;2.90;;;2.70;;
45905;SDS011;31619;49.008;12.106;2023-01-15T02:48:02;2.92;;;2.70;;
45905;SDS011;31619;49.008;12.106;2023-01-15T02:50:34;2.80;;;2.60;;
45905;SDS011;31619;49.008;12.106;2023-01-15T02:53:03;2.88;;;2.67;;
45905;SDS011;31619;49.008;12.106;2023-01-15T02:55:33;4.32;;;2.80;;
45905;SDS011;31619;49.008;12.106;2023-01-15T02:58:03;3.95;;;2.65;;
45905;SDS011;31619;49.008;12.106;2023-01-15T03:00:34;3.42;;;2.50;;
45905;SDS011;31619;49.008;12.106;2023-01-15T03:03:06;2.72;;;2.53;;
45905;SDS011;31619;49.008;12.106;2023-01-15T03:05:38;2.92;;;2.70;;
45905;SDS011;31619;49.008;12.106;2023-01-15T03:08:07;2.88;;;2.67;;
45905;SDS011;31619;49.008;12.106;2023-01-15T03:10:41;3.30;;;3.10;;
45905;SDS011;31619;49.008;12.106;2023-01-15T03:13:15;2.88;;;2.67;;
45905;SDS011;31619;49.008;12.106;2023-01-15T03:15:58;2.88;;;2.67;;
45905;SDS011;31619;49.008;12.106;2023-01-15T03:19:08;2.50;;;2.40;;
45905;SDS011;31619;49.008;12.106;2023-01-15T03:21:54;2.50;;;2.30;;
45905;SDS011;31619;49.008;12.106;2023-01-15T03:24:36;2.78;;;2.50;;
45905;SDS011;31619;49.008;12.106;2023-01-15T03:27:06;2.65;;;2.45;;
45905;SDS011;31619;49.008;12.106;2023-01-15T03:29:33;2.47;;;2.30;;
45905;SDS011;31619;49.008;12.106;2023-01-15T03:32:03;2.70;;;2.50;;
45905;SDS011;31619;49.008;12.106;2023-01-15T03:34:36;2.97;;;2.70;;
45905;SDS011;31619;49.008;12.106;2023-01-15T03:37:06;2.83;;;2.63;;
45905;SDS011;31619;49.008;12.106;2023-01-15T03:39:32;2.55;;;2.30;;
45905;SDS011;31619;49.008;12.106;2023-01-15T03:47:14;2.83;;;2.58;;
45905;SDS011;31619;49.008;12.106;2023-01-15T03:52:42;2.72;;;2.53;;
45905;SDS011;31619;49.008;12.106;2023-01-15T03:55:25;2.65;;;2.42;;
45905;SDS011;31619;49.008;12.106;2023-01-15T04:01:02;2.65;;;2.45;;
45905;SDS011;31619;49.008;12.106;2023-01-15T04:03:29;2.60;;;2.40;;
45905;SDS011;31619;49.008;12.106;2023-01-15T04:05:58;2.13;;;2.03;;
45905;SDS011;31619;49.008;12.106;2023-01-15T04:08:26;2.80;;;2.55;;
45905;SDS011;31619;49.008;12.106;2023-01-15T04:10:57;2.22;;;2.13;;
45905;SDS011;31619;49.008;12.106;2023-01-15T04:13:25;2.38;;;2.08;;
45905;SDS011;31619;49.008;12.106;2023-01-15T04:15:51;2.83;;;2.63;;
45905;SDS011;31619;49.008;12.106;2023-01-15T04:18:17;2.47;;;2.17;;
45905;SDS011;31619;49.008;12.106;2023-01-15T04:20:43;2.83;;;2.55;;
45905;SDS011;31619;49.008;12.106;2023-01-15T04:23:09;2.78;;;2.38;;
45905;SDS011;31619;49.008;12.106;2023-01-15T04:25:35;2.38;;;2.28;;
45905;SDS011;31619;49.008;12.106;2023-01-15T04:28:01;3.10;;;2.67;;
45905;SDS011;31619;49.008;12.106;2023-01-15T04:30:27;2.80;;;2.60;;
45905;SDS011;31619;49.008;12.106;2023-01-15T04:32:53;4.13;;;2.85;;
45905;SDS011;31619;49.008;12.106;2023-01-15T04:35:18;2.80;;;2.40;;
45905;SDS011;31619;49.008;12.106;2023-01-15T04:37:44;3.20;;;2.90;;
45905;SDS011;31619;49.008;12.106;2023-01-15T04:40:10;2.60;;;2.40;;
45905;SDS011;31619;49.008;12.106;2023-01-15T04:42:59;4.18;;;2.67;;
45905;SDS011;31619;49.008;12.106;2023-01-15T04:45:43;3.55;;;2.63;;
45905;SDS011;31619;49.008;12.106;2023-01-15T04:48:09;2.85;;;2.65;;
45905;SDS011;31619;49.008;12.106;2023-01-15T04:50:36;2.65;;;2.42;;
45905;SDS011;31619;49.008;12.106;2023-01-15T04:53:02;3.17;;;2.88;;
45905;SDS011;31619;49.008;12.106;2023-01-15T04:55:28;2.65;;;2.47;;
45905;SDS011;31619;49.008;12.106;2023-01-15T04:57:54;3.13;;;2.83;;
45905;SDS011;31619;49.008;12.106;2023-01-15T05:00:20;2.63;;;2.50;;
45905;SDS011;31619;49.008;12.106;2023-01-15T05:02:47;2.92;;;2.72;;
45905;SDS011;31619;49.008;12.106;2023-01-15T05:05:13;2.55;;;2.35;;
45905;SDS011;31619;49.008;12.106;2023-01-15T05:07:39;2.97;;;2.70;;
45905;SDS011;31619;49.008;12.106;2023-01-15T05:10:05;2.95;;;2.75;;
45905;SDS011;31619;49.008;12.106;2023-01-15T05:12:31;4.45;;;3.08;;
45905;SDS011;31619;49.008;12.106;2023-01-15T05:14:56;3.55;;;3.25;;
45905;SDS011;31619;49.008;12.106;2023-01-15T05:17:22;3.10;;;2.80;;
45905;SDS011;31619;49.008;12.106;2023-01-15T05:19:47;2.95;;;2.72;;
45905;SDS011;31619;49.008;12.106;2023-01-15T05:22:13;3.10;;;2.88;;
45905;SDS011;31619;49.008;12.106;2023-01-15T05:24:38;3.22;;;3.03;;
45905;SDS011;31619;49.008;12.106;2023-01-15T05:27:04;2.63;;;2.47;;
45905;SDS011;31619;49.008;12.106;2023-01-15T05:29:30;3.47;;;3.17;;
45905;SDS011;31619;49.008;12.106;2023-01-15T05:31:55;3.95;;;3.05;;
45905;SDS011;31619;49.008;12.106;2023-01-15T05:34:21;4.40;;;2.92;;
45905;SDS011;31619;49.008;12.106;2023-01-15T05:36:47;3.95;;;3.08;;
45905;SDS011;31619;49.008;12.106;2023-01-15T05:39:13;5.32;;;3.22;;
45905;SDS011;31619;49.008;12.106;2023-01-15T05:41:39;2.85;;;2.75;;
45905;SDS011;31619;49.008;12.106;2023-01-15T05:44:14;3.28;;;2.70;;
45905;SDS011;31619;49.008;12.106;2023-01-15T05:46:51;3.97;;;3.50;;
45905;SDS011;31619;49.008;12.106;2023-01-15T05:49:20;3.10;;;2.90;;
45905;SDS011;31619;49.008;12.106;2023-01-15T05:51:47;2.72;;;2.53;;
45905;SDS011;31619;49.008;12.106;2023-01-15T05:54:14;3.13;;;2.92;;
45905;SDS011;31619;49.008;12.106;2023-01-15T05:56:44;3.72;;;3.10;;
45905;SDS011;31619;49.008;12.106;2023-01-15T05:59:10;3.90;;;3.42;;
45905;SDS011;31619;49.008;12.106;2023-01-15T06:01:37;3.08;;;2.88;;
45905;SDS011;31619;49.008;12.106;2023-01-15T06:04:03;2.90;;;2.70;;
45905;SDS011;31619;49.008;12.106;2023-01-15T06:06:30;3.15;;;2.85;;
45905;SDS011;31619;49.008;12.106;2023-01-15T06:08:56;2.85;;;2.65;;
45905;SDS011;31619;49.008;12.106;2023-01-15T06:11:22;4.03;;;2.83;;
45905;SDS011;31619;49.008;12.106;2023-01-15T06:13:48;5.43;;;2.80;;
45905;SDS011;31619;49.008;12.106;2023-01-15T06:16:14;3.40;;;2.70;;
45905;SDS011;31619;49.008;12.106;2023-01-15T06:18:40;3.00;;;2.60;;
45905;SDS011;31619;49.008;12.106;2023-01-15T06:21:07;3.78;;;2.95;;
45905;SDS011;31619;49.008;12.106;2023-01-15T06:23:34;2.90;;;2.70;;
45905;SDS011;31619;49.008;12.106;2023-01-15T06:26:02;2.97;;;2.78;;
45905;SDS011;31619;49.008;12.106;2023-01-15T06:28:29;2.70;;;2.50;;
45905;SDS011;31619;49.008;12.106;2023-01-15T06:30:55;2.72;;;2.53;;
45905;SDS011;31619;49.008;12.106;2023-01-15T06:33:21;2.95;;;2.75;;
45905;SDS011;31619;49.008;12.106;2023-01-15T06:35:47;2.60;;;2.40;;
45905;SDS011;31619;49.008;12.106;2023-01-15T06:38:13;2.50;;;2.30;;
45905;SDS011;31619;49.008;12.106;2023-01-15T06:40:39;2.83;;;2.30;;
45905;SDS011;31619;49.008;12.106;2023-01-15T06:43:04;3.75;;;2.75;;
45905;SDS011;31619;49.008;12.106;2023-01-15T06:45:48;4.43;;;2.58;;
45905;SDS011;31619;49.008;12.106;2023-01-15T06:48:32;3.40;;;2.47;;
45905;SDS011;31619;49.008;12.106;2023-01-15T06:50:58;2.70;;;2.50;;
45905;SDS011;31619;49.008;12.106;2023-01-15T06:53:24;2.97;;;2.60;;
45905;SDS011;31619;49.008;12.106;2023-01-15T06:55:50;3.42;;;2.60;;
45905;SDS011;31619;49.008;12.106;2023-01-15T06:58:16;3.60;;;2.63;;
45905;SDS011;31619;49.008;12.106;2023-01-15T07:00:41;2.80;;;2.60;;
45905;SDS011;31619;49.008;12.106;2023-01-15T07:03:09;2.80;;;2.30;;
45905;SDS011;31619;49.008;12.106;2023-01-15T07:05:38;2.53;;;2.38;;
45905;SDS011;31619;49.008;12.106;2023-01-15T07:08:04;4.05;;;2.10;;
45905;SDS011;31619;49.008;12.106;2023-01-15T07:10:29;2.50;;;2.30;;
45905;SDS011;31619;49.008;12.106;2023-01-15T07:12:55;2.58;;;2.47;;
45905;SDS011;31619;49.008;12.106;2023-01-15T07:15:20;2.00;;;1.90;;
45905;SDS011;31619;49.008;12.106;2023-01-15T07:17:46;2.58;;;2.38;;
45905;SDS011;31619;49.008;12.106;2023-01-15T07:20:12;2.83;;;2.35;;
45905;SDS011;31619;49.008;12.106;2023-01-15T07:22:37;2.30;;;2.15;;
45905;SDS011;31619;49.008;12.106;2023-01-15T07:25:03;2.30;;;2.10;;
45905;SDS011;31619;49.008;12.106;2023-01-15T07:27:29;2.17;;;2.00;;
45905;SDS011;31619;49.008;12.106;2023-01-15T07:29:54;3.03;;;2.05;;
45905;SDS011;31619;49.008;12.106;2023-01-15T07:32:20;2.50;;;2.30;;
45905;SDS011;31619;49.008;12.106;2023-01-15T07:34:45;2.22;;;2.05;;
45905;SDS011;31619;49.008;12.106;2023-01-15T07:37:11;2.42;;;2.22;;
45905;SDS011;31619;49.008;12.106;2023-01-15T07:39:37;2.83;;;2.63;;
45905;SDS011;31619;49.008;12.106;2023-01-15T07:42:02;2.78;;;2.50;;
45905;SDS011;31619;49.008;12.106;2023-01-15T07:44:46;3.55;;;2.03;;
45905;SDS011;31619;49.008;12.106;2023-01-15T07:47:30;1.90;;;1.80;;
45905;SDS011;31619;49.008;12.106;2023-01-15T07:50:20;3.45;;;1.90;;
45905;SDS011;31619;49.008;12.106;2023-01-15T07:52:47;2.13;;;1.92;;
45905;SDS011;31619;49.008;12.106;2023-01-15T07:55:13;2.13;;;2.03;;
45905;SDS011;31619;49.008;12.106;2023-01-15T07:57:41;1.90;;;1.80;;
45905;SDS011;31619;49.008;12.106;2023-01-15T08:00:12;2.08;;;1.98;;
45905;SDS011;31619;49.008;12.106;2023-01-15T08:02:40;2.58;;;2.38;;
45905;SDS011;31619;49.008;12.106;2023-01-15T08:05:06;3.83;;;1.92;;
45905;SDS011;31619;49.008;12.106;2023-01-15T08:07:36;2.80;;;2.47;;
45905;SDS011;31619;49.008;12.106;2023-01-15T08:10:05;4.05;;;2.42;;
45905;SDS011;31619;49.008;12.106;2023-01-15T08:12:32;2.78;;;2.65;;
45905;SDS011;31619;49.008;12.106;2023-01-15T08:15:16;2.35;;;2.15;;
45905;SDS011;31619;49.008;12.106;2023-01-15T08:17:46;2.58;;;2.38;;
45905;SDS011;31619;49.008;12.106;2023-01-15T08:20:14;2.33;;;2.20;;
45905;SDS011;31619;49.008;12.106;2023-01-15T08:22:40;2.17;;;2.08;;
45905;SDS011;31619;49.008;12.106;2023-01-15T08:25:07;2.22;;;1.98;;
45905;SDS011;31619;49.008;12.106;2023-01-15T08:27:34;2.50;;;2.30;;
45905;SDS011;31619;49.008;12.106;2023-01-15T08:30:01;1.88;;;1.77;;
45905;SDS011;31619;49.008;12.106;2023-01-15T08:32:28;2.28;;;1.90;;
45905;SDS011;31619;49.008;12.106;2023-01-15T08:34:53;2.35;;;2.15;;
45905;SDS011;31619;49.008;12.106;2023-01-15T08:37:19;2.33;;;2.13;;
45905;SDS011;31619;49.008;12.106;2023-01-15T08:39:44;5.57;;;2.25;;
45905;SDS011;31619;49.008;12.106;2023-01-15T08:42:10;2.55;;;2.00;;
45905;SDS011;31619;49.008;12.106;2023-01-15T08:44:35;2.55;;;2.35;;
45905;SDS011;31619;49.008;12.106;2023-01-15T08:47:01;2.20;;;2.10;;
45905;SDS011;31619;49.008;12.106;2023-01-15T08:49:27;3.00;;;1.98;;
45905;SDS011;31619;49.008;12.106;2023-01-15T08:51:53;2.67;;;2.47;;
45905;SDS011;31619;49.008;12.106;2023-01-15T08:54:19;2.30;;;2.10;;
45905;SDS011;31619;49.008;12.106;2023-01-15T08:56:45;2.30;;;2.05;;
45905;SDS011;31619;49.008;12.106;2023-01-15T08:59:11;2.00;;;1.90;;
45905;SDS011;31619;49.008;12.106;2023-01-15T09:01:36;2.78;;;2.58;;
45905;SDS011;31619;49.008;12.106;2023-01-15T09:04:02;3.22;;;2.67;;
45905;SDS011;31619;49.008;12.106;2023-01-15T09:06:30;2.83;;;2.63;;
45905;SDS011;31619;49.008;12.106;2023-01-15T09:08:57;2.25;;;2.15;;
45905;SDS011;31619;49.008;12.106;2023-01-15T09:11:23;0.80;;;0.80;;
45905;SDS011;31619;49.008;12.106;2023-01-15T09:13:49;0.88;;;0.88;;
45905;SDS011;31619;49.008;12.106;2023-01-15T09:16:16;2.85;;;0.40;;
45905;SDS011;31619;49.008;12.106;2023-01-15T09:18:42;0.40;;;0.40;;
45905;SDS011;31619;49.008;12.106;2023-01-15T09:21:08;0.47;;;0.47;;
45905;SDS011;31619;49.008;12.106;2023-01-15T09:23:34;0.82;;;0.82;;
45905;SDS011;31619;49.008;12.106;2023-01-15T09:26:00;0.45;;;0.45;;
45905;SDS011;31619;49.008;12.106;2023-01-15T09:28:32;1.15;;;1.05;;
45905;SDS011;31619;49.008;12.106;2023-01-15T09:30:58;1.02;;;1.02;;
45905;SDS011;31619;49.008;12.106;2023-01-15T09:33:24;2.33;;;2.15;;
45905;SDS011;31619;49.008;12.106;2023-01-15T09:35:50;1.10;;;1.10;;
45905;SDS011;31619;49.008;12.106;2023-01-15T09:38:17;1.50;;;0.95;;
45905;SDS011;31619;49.008;12.106;2023-01-15T09:40:46;0.68;;;0.68;;
45905;SDS011;31619;49.008;12.106;2023-01-15T09:46:41;0.80;;;0.80;;
45905;SDS011;31619;49.008;12.106;2023-01-15T09:50:22;0.40;;;0.40;;
45905;SDS011;31619;49.008;12.106;2023-01-15T09:52:42;0.20;;;0.20;;
45905;SDS011;31619;49.008;12.106;2023-01-15T09:55:45;0.20;;;0.20;;
45905;SDS011;31619;49.008;12.106;2023-01-15T09:58:12;0.22;;;0.22;;
45905;SDS011;31619;49.008;12.106;2023-01-15T10:00:43;0.50;;;0.50;;
45905;SDS011;31619;49.008;12.106;2023-01-15T10:03:23;0.35;;;0.35;;
45905;SDS011;31619;49.008;12.106;2023-01-15T10:05:51;0.57;;;0.57;;
45905;SDS011;31619;49.008;12.106;2023-01-15T10:08:23;0.40;;;0.40;;
45905;SDS011;31619;49.008;12.106;2023-01-15T10:11:02;0.17;;;0.17;;
45905;SDS011;31619;49.008;12.106;2023-01-15T10:16:08;0.20;;;0.20;;
45905;SDS011;31619;49.008;12.106;2023-01-15T10:18:37;0.20;;;0.20;;
45905;SDS011;31619;49.008;12.106;2023-01-15T10:26:38;0.20;;;0.20;;
45905;SDS011;31619;49.008;12.106;2023-01-15T10:37:33;0.20;;;0.20;;
45905;SDS011;31619;49.008;12.106;2023-01-15T10:40:08;0.20;;;0.20;;
45905;SDS011;31619;49.008;12.106;2023-01-15T10:45:21;0.22;;;0.22;;
45905;SDS011;31619;49.008;12.106;2023-01-15T10:47:53;0.32;;;0.32;;
45905;SDS011;31619;49.008;12.106;2023-01-15T10:50:40;0.20;;;0.20;;
45905;SDS011;31619;49.008;12.106;2023-01-15T10:55:41;0.40;;;0.40;;
45905;SDS011;31619;49.008;12.106;2023-01-15T11:01:05;0.20;;;0.20;;
45905;SDS011;31619;49.008;12.106;2023-01-15T11:03:37;0.20;;;0.20;;
45905;SDS011;31619;49.008;12.106;2023-01-15T11:06:14;0.20;;;0.20;;
45905;SDS011;31619;49.008;12.106;2023-01-15T11:08:42;0.88;;;0.88;;
45905;SDS011;31619;49.008;12.106;2023-01-15T11:11:21;0.40;;;0.40;;
45905;SDS011;31619;49.008;12.106;2023-01-15T11:14:13;0.57;;;0.47;;
45905;SDS011;31619;49.008;12.106;2023-01-15T11:16:58;0.60;;;0.60;;
45905;SDS011;31619;49.008;12.106;2023-01-15T11:19:36;0.52;;;0.52;;
45905;SDS011;31619;49.008;12.106;2023-01-15T11:22:14;0.28;;;0.28;;
45905;SDS011;31619;49.008;12.106;2023-01-15T11:24:49;0.63;;;0.63;;
45905;SDS011;31619;49.008;12.106;2023-01-15T11:27:22;0.50;;;0.50;;
45905;SDS011;31619;49.008;12.106;2023-01-15T11:29:57;0.63;;;0.63;;
45905;SDS011;31619;49.008;12.106;2023-01-15T11:35:01;0.50;;;0.50;;
45905;SDS011;31619;49.008;12.106;2023-01-15T11:37:37;1.00;;;0.35;;
45905;SDS011;31619;49.008;12.106;2023-01-15T11:40:03;0.30;;;0.30;;
45905;SDS011;31619;49.008;12.106;2023-01-15T11:42:36;0.50;;;0.50;;
45905;SDS011;31619;49.008;12.106;2023-01-15T11:45:28;0.30;;;0.30;;
45905;SDS011;31619;49.008;12.106;2023-01-15T11:48:20;0.40;;;0.40;;
45905;SDS011;31619;49.008;12.106;2023-01-15T11:51:15;0.25;;;0.25;;
45905;SDS011;31619;49.008;12.106;2023-01-15T11:53:45;0.57;;;0.57;;
45905;SDS011;31619;49.008;12.106;2023-01-15T11:56:25;0.50;;;0.50;;
45905;SDS011;31619;49.008;12.106;2023-01-15T11:58:53;0.70;;;0.70;;
45905;SDS011;31619;49.008;12.106;2023-01-15T12:03:52;0.45;;;0.45;;
45905;SDS011;31619;49.008;12.106;2023-01-15T12:06:19;0.30;;;0.30;;
45905;SDS011;31619;49.008;12.106;2023-01-15T12:08:49;0.52;;;0.52;;
45905;SDS011;31619;49.008;12.106;2023-01-15T12:22:54;1.08;;;1.08;;
45905;SDS011;31619;49.008;12.106;2023-01-15T12:25:37;1.33;;;0.47;;
45905;SDS011;31619;49.008;12.106;2023-01-15T12:28:20;0.75;;;0.65;;
45905;SDS011;31619;49.008;12.106;2023-01-15T12:31:11;0.50;;;0.50;;
45905;SDS011;31619;49.008;12.106;2023-01-15T12:36:20;0.70;;;0.70;;
45905;SDS011;31619;49.008;12.106;2023-01-15T12:41:32;1.55;;;0.60;;
45905;SDS011;31619;49.008;12.106;2023-01-15T12:47:18;0.50;;;0.50;;
45905;SDS011;31619;49.008;12.106;2023-01-15T12:49:54;0.50;;;0.50;;
45905;SDS011;31619;49.008;12.106;2023-01-15T12:52:42;0.30;;;0.30;;
45905;SDS011;31619;49.008;12.106;2023-01-15T12:55:20;0.30;;;0.30;;
45905;SDS011;31619;49.008;12.106;2023-01-15T12:57:52;0.55;;;0.55;;
45905;SDS011;31619;49.008;12.106;2023-01-15T13:03:08;0.40;;;0.40;;
45905;SDS011;31619;49.008;12.106;2023-01-15T13:05:49;0.52;;;0.30;;
45905;SDS011;31619;49.008;12.106;2023-01-15T13:08:48;0.43;;;0.43;;
45905;SDS011;31619;49.008;12.106;2023-01-15T13:11:24;0.68;;;0.68;;
45905;SDS011;31619;49.008;12.106;2023-01-15T13:13:50;0.30;;;0.30;;
45905;SDS011;31619;49.008;12.106;2023-01-15T13:16:29;0.70;;;0.70;;
45905;SDS011;31619;49.008;12.106;2023-01-15T13:22:00;0.40;;;0.40;;
45905;SDS011;31619;49.008;12.106;2023-01-15T13:27:16;0.32;;;0.32;;
45905;SDS011;31619;49.008;12.106;2023-01-15T13:32:34;0.32;;;0.32;;
45905;SDS011;31619;49.008;12.106;2023-01-15T13:35:11;0.55;;;0.55;;
45905;SDS011;31619;49.008;12.106;2023-01-15T13:37:45;0.40;;;0.40;;
45905;SDS011;31619;49.008;12.106;2023-01-15T13:40:22;0.50;;;0.50;;
45905;SDS011;31619;49.008;12.106;2023-01-15T13:43:20;0.30;;;0.30;;
45905;SDS011;31619;49.008;12.106;2023-01-15T13:46:06;0.40;;;0.40;;
45905;SDS011;31619;49.008;12.106;2023-01-15T13:48:40;0.50;;;0.50;;
45905;SDS011;31619;49.008;12.106;2023-01-15T13:51:16;0.30;;;0.30;;
45905;SDS011;31619;49.008;12.106;2023-01-15T13:53:46;0.50;;;0.50;;
45905;SDS011;31619;49.008;12.106;2023-01-15T13:56:13;0.55;;;0.55;;
45905;SDS011;31619;49.008;12.106;2023-01-15T13:58:55;0.40;;;0.40;;
45905;SDS011;31619;49.008;12.106;2023-01-15T14:01:31;0.80;;;0.80;;
45905;SDS011;31619;49.008;12.106;2023-01-15T14:06:40;0.50;;;0.50;;
45905;SDS011;31619;49.008;12.106;2023-01-15T14:30:36;0.55;;;0.55;;
45905;SDS011;31619;49.008;12.106;2023-01-15T14:35:49;0.45;;;0.45;;
45905;SDS011;31619;49.008;12.106;2023-01-15T14:38:19;0.82;;;0.65;;
45905;SDS011;31619;49.008;12.106;2023-01-15T14:40:50;0.82;;;0.60;;
45905;SDS011;31619;49.008;12.106;2023-01-15T14:43:20;0.45;;;0.45;;
45905;SDS011;31619;49.008;12.106;2023-01-15T14:45:48;0.63;;;0.60;;
45905;SDS011;31619;49.008;12.106;2023-01-15T14:48:17;1.02;;;0.43;;
45905;SDS011;31619;49.008;12.106;2023-01-15T14:50:44;0.50;;;0.50;;
45905;SDS011;31619;49.008;12.106;2023-01-15T14:56:24;0.40;;;0.40;;
45905;SDS011;31619;49.008;12.106;2023-01-15T14:58:38;0.82;;;0.82;;
45905;SDS011;31619;49.008;12.106;2023-01-15T15:01:31;1.10;;;0.60;;
45905;SDS011;31619;49.008;12.106;2023-01-15T15:04:18;0.32;;;0.32;;
45905;SDS011;31619;49.008;12.106;2023-01-15T15:10:01;0.30;;;0.30;;
45905;SDS011;31619;49.008;12.106;2023-01-15T15:22:57;0.40;;;0.40;;
45905;SDS011;31619;49.008;12.106;2023-01-15T15:25:32;0.52;;;0.52;;
45905;SDS011;31619;49.008;12.106;2023-01-15T15:28:01;0.98;;;0.65;;
45905;SDS011;31619;49.008;12.106;2023-01-15T15:30:31;0.60;;;0.60;;
45905;SDS011;31619;49.008;12.106;2023-01-15T15:32:59;0.75;;;0.75;;
45905;SDS011;31619;49.008;12.106;2023-01-15T15:35:29;0.80;;;0.55;;
45905;SDS011;31619;49.008;12.106;2023-01-15T15:37:58;0.60;;;0.60;;
45905;SDS011;31619;49.008;12.106;2023-01-15T15:40:32;0.70;;;0.70;;
45905;SDS011;31619;49.008;12.106;2023-01-15T15:43:11;0.60;;;0.60;;
45905;SDS011;31619;49.008;12.106;2023-01-15T15:45:59;0.40;;;0.40;;
45905;SDS011;31619;49.008;12.106;2023-01-15T15:48:44;2.92;;;0.52;;
45905;SDS011;31619;49.008;12.106;2023-01-15T15:51:22;0.50;;;0.50;;
45905;SDS011;31619;49.008;12.106;2023-01-15T15:56:43;1.13;;;0.45;;
45905;SDS011;31619;49.008;12.106;2023-01-15T15:59:30;0.60;;;0.60;;
45905;SDS011;31619;49.008;12.106;2023-01-15T16:02:05;0.63;;;0.50;;
45905;SDS011;31619;49.008;12.106;2023-01-15T16:04:42;0.80;;;0.80;;
45905;SDS011;31619;49.008;12.106;2023-01-15T16:07:28;1.20;;;0.98;;
45905;SDS011;31619;49.008;12.106;2023-01-15T16:12:48;0.93;;;0.93;;
45905;SDS011;31619;49.008;12.106;2023-01-15T16:15:22;0.93;;;0.93;;
45905;SDS011;31619;49.008;12.106;2023-01-15T16:17:53;1.00;;;1.00;;
45905;SDS011;31619;49.008;12.106;2023-01-15T16:20:20;1.55;;;1.40;;
45905;SDS011;31619;49.008;12.106;2023-01-15T16:22:59;0.77;;;0.70;;
45905;SDS011;31619;49.008;12.106;2023-01-15T16:25:33;0.70;;;0.70;;
45905;SDS011;31619;49.008;12.106;2023-01-15T16:28:02;1.10;;;1.10;;
45905;SDS011;31619;49.008;12.106;2023-01-15T16:30:29;1.27;;;0.88;;
45905;SDS011;31619;49.008;12.106;2023-01-15T16:32:59;1.55;;;1.45;;
45905;SDS011;31619;49.008;12.106;2023-01-15T16:35:27;0.90;;;0.90;;
45905;SDS011;31619;49.008;12.106;2023-01-15T16:37:55;0.73;;;0.73;;
45905;SDS011;31619;49.008;12.106;2023-01-15T16:40:26;1.33;;;1.23;;
45905;SDS011;31619;49.008;12.106;2023-01-15T16:45:28;1.10;;;1.00;;
45905;SDS011;31619;49.008;12.106;2023-01-15T16:48:01;0.82;;;0.80;;
45905;SDS011;31619;49.008;12.106;2023-01-15T16:50:34;0.80;;;0.80;;
45905;SDS011;31619;49.008;12.106;2023-01-15T16:53:04;2.20;;;1.08;;
45905;SDS011;31619;49.008;12.106;2023-01-15T16:55:34;1.00;;;1.00;;
45905;SDS011;31619;49.008;12.106;2023-01-15T16:58:13;2.78;;;1.10;;
45905;SDS011;31619;49.008;12.106;2023-01-15T17:00:39;1.02;;;1.02;;
45905;SDS011;31619;49.008;12.106;2023-01-15T17:03:14;1.02;;;0.80;;
45905;SDS011;31619;49.008;12.106;2023-01-15T17:05:43;1.13;;;1.13;;
45905;SDS011;31619;49.008;12.106;2023-01-15T17:08:14;3.17;;;2.22;;